Content
SEND FEEDBACK

Daily
Averages
Monthly
Summary
Sweden

ORNSKOLDSVIK, SWEDEN


Home > Europe > Sweden
Elevation: 338 feet     Latitude: 63 24N     Longitude: 018 58E

WEATHER
 
SELECT A DAY
Number of Records: 203,753;   Date Range: 1/10/97 - 10/18/14
 
SHARE

PRINT THIS DATA

[ ← Previous Day ]
WEATHER ALMANAC - JANUARY 31, 2013
[ Next Day → ]
[ °C ]   °F
Weather ElementAverageHighLow
Temperature24.8 °F30.2 °F (10:50 am) (12:50 am)
Dewpoint24.2 °F30.2 °F (11:50 am) (7:00 pm)
Humidity97.7 %100 % (1:20 am)93 % (10:50 am)
Barometer28.79 in28.97 in (10:20 pm)28.65 in (12:50 am)
Wind Speed6.6 mph13.8 mph (12:20 pm)
Weather ElementAverage
Visibility3.9 mi
Wind DirectionW (268.7 °)

Weather ElementTotal
Precipitation---
Heating Degree Days49.9 (Base 65)
Averaged from 47 records on January 31, 2013
WEATHER CONDITIONS BREAKOUT
WIND DIRECTION BREAKOUT
WEATHER BY HOUR - JANUARY 31, 2013
[ °C ]   °F
Local TimeTemperatureDewpointHumidityBarometerVisibilityWind DirectionWind SpeedGust SpeedPrecipitationEventsConditions
12:50 AM0.0 °F0.0 °F28.65 inVariable2.3 mphOvercast
1:20 AM28.4 °F28.4 °F100 %28.65 in0.1 miSW (230°)1.2 mphFogLight Freezing Fog
1:50 AM28.4 °F28.4 °F100 %28.65 in0.1 miWNW (300°)1.2 mphFogLight Freezing Fog
2:20 AM28.4 °F28.4 °F100 %28.65 in0.1 miWSW (250°)1.2 mphFogLight Freezing Fog
2:50 AM26.6 °F26.6 °F100 %28.65 in0.2 miSW (220°)3.5 mphFogLight Freezing Fog
3:20 AM28.4 °F28.4 °F100 %28.65 in0.3 miSW (220°)4.6 mphFogLight Freezing Fog
3:50 AM26.6 °F26.6 °F100 %28.65 in0.1 miSW (230°)3.5 mphFogLight Freezing Fog
4:20 AM24.8 °F24.8 °F100 %28.65 in0.2 miVariable2.3 mphFogLight Freezing Fog
4:50 AM24.8 °F24.8 °F100 %28.68 in0.1 miWSW (250°)2.3 mphFogLight Freezing Fog
5:20 AM24.8 °F24.8 °F100 %28.68 in0.1 miWest (270°)3.5 mphFogLight Freezing Fog
5:50 AM24.8 °F24.8 °F100 %28.68 in0.3 miWest (280°)2.3 mphFogLight Freezing Fog
6:20 AM26.6 °F26.6 °F100 %28.68 in6.2 miSW (230°)2.3 mphMostly Cloudy
6:50 AM24.8 °F24.8 °F100 %28.68 inWNW (290°)2.3 mphClear
7:20 AM24.8 °F24.8 °F100 %28.68 inWest (280°)3.5 mphClear
7:50 AM24.8 °F24.8 °F100 %28.68 inWest (270°)2.3 mphClear
8:20 AM26.6 °F26.6 °F100 %28.71 in6.2 miWest (270°)4.6 mphMostly Cloudy
8:50 AM26.6 °F26.6 °F100 %28.71 in6.2 miWest (270°)4.6 mphMostly Cloudy
9:20 AM26.6 °F26.6 °F100 %28.71 in6.2 miWest (270°)5.8 mphMostly Cloudy
9:50 AM26.6 °F26.6 °F100 %28.74 inWNW (290°)5.8 mphClear
10:20 AM28.4 °F28.4 °F100 %28.74 in6.2 miWest (280°)9.2 mphMostly Cloudy
10:50 AM30.2 °F28.4 °F93 %28.74 in6.2 miWest (270°)8.1 mphMostly Cloudy
11:20 AM28.4 °F28.4 °F100 %28.77 in6.2 miWest (270°)8.1 mphScattered Clouds
11:50 AM30.2 °F30.2 °F100 %28.77 in6.2 miWNW (300°)10.4 mphOvercast
12:20 PM30.2 °F30.2 °F100 %28.80 in6.2 miWNW (300°)13.8 mphOvercast
12:50 PM0.0 °F0.0 °F28.80 in6.2 miNW (320°)10.4 mphScattered Clouds
1:20 PM30.2 °F30.2 °F100 %28.80 in6.2 miNW (310°)13.8 mphScattered Clouds
1:50 PM30.2 °F28.4 °F93 %28.82 in6.2 miNW (310°)13.8 mphScattered Clouds
2:20 PM30.2 °F28.4 °F93 %28.82 in6.2 miWNW (300°)10.4 mphMostly Cloudy
2:50 PM28.4 °F28.4 °F100 %28.85 inNW (310°)11.5 mphClear
3:20 PM24.8 °F24.8 °F100 %28.85 inWNW (300°)10.4 mphClear
3:50 PM26.6 °F24.8 °F93 %28.85 inWest (270°)10.4 mphClear
4:20 PM24.8 °F24.8 °F100 %28.88 inWest (280°)6.9 mphClear
4:50 PM24.8 °F24.8 °F100 %28.88 inWest (280°)8.1 mphClear
5:20 PM24.8 °F23.0 °F93 %28.88 inWest (280°)6.9 mphClear
5:50 PM23.0 °F21.2 °F93 %28.88 inWest (280°)9.2 mphClear
6:20 PM24.8 °F23.0 °F93 %28.91 inNW (320°)4.6 mphClear
6:50 PM21.2 °F21.2 °F100 %28.91 inWest (270°)3.5 mphClear
7:20 PM23.0 °F21.2 °F93 %28.91 inWest (270°)4.6 mphClear
7:50 PM23.0 °F21.2 °F93 %28.91 inWest (280°)6.9 mphClear
8:20 PM23.0 °F21.2 °F93 %28.91 inWest (280°)11.5 mphClear
8:50 PM23.0 °F21.2 °F93 %28.94 inWNW (290°)9.2 mphClear
9:20 PM23.0 °F23.0 °F100 %28.94 inNW (310°)5.8 mphClear
9:50 PM23.0 °F21.2 °F93 %28.94 inWNW (300°)6.9 mphClear
10:20 PM23.0 °F21.2 °F93 %28.97 inNW (310°)8.1 mphClear
10:50 PM23.0 °F21.2 °F93 %28.97 in6.2 miNW (310°)10.4 mph
11:20 PM23.0 °F23.0 °F100 %28.97 in6.2 miWNW (300°)9.2 mph
11:50 PM23.0 °F21.2 °F93 %28.97 in6.2 miNW (310°)10.4 mph
Hourly data recorded from ESNO, located miles away from Ornskoldsvik, Sweden







STORIES FROM OUR PARTNERS